• Join FlightAware (Why Join?)
  • Login
  • US Flag 
09:28PM EDT


 

Airport Tracker/Info


-or-


 

Live Flight TrackerFlight Track Log ✈ SWA1521 ✈ 23-Apr-2013 ✈ KSMF - KLAX

Flight Track Log - Related Links

Times and Time Zones

All times are in EDT time to prevent confusion due to time zone crossing. See the SWA1521 flight status page for this flight to view local times or setup timezone preferences in your user account.

Time Position Orientation Groundspeed Altitude Reporting Facility
EDT Latitude Longitude Course Direction KTS MPH feet Rate Location/Type
11:41PM 38.7500 -121.5833 31° Northeast 207 238 2,700  Level Northern Cal TRACON
11:42PM 38.7167 -121.5167 123° Southeast 263 303 4,600 3,120 Climbing Northern Cal TRACON
11:43PM 38.6392 -121.3803 126° Southeast 293 337 10,700 3,420 Climbing Oakland Center
11:44PM 38.5847 -121.2811 125° Southeast 326 375 13,700 3,000 Climbing Oakland Center
11:45PM 38.5178 -121.1694 127° Southeast 358 412 16,900 3,240 Climbing Oakland Center
11:46PM 38.3072 -120.9824 109° East  Level FlightAware Approximate
11:46PM 38.4489 -121.0522 127° Southeast 396 456 20,300  Level Oakland Center
11:47PM 38.3786 -120.9303 126° Southeast 418 481 23,000 2,340 Climbing Oakland Center
11:48PM 38.3044 -120.8039 127° Southeast 441 507 25,100 2,160 Climbing Oakland Center
11:49PM 38.2256 -120.6769 128° Southeast 455 524 27,500 2,160 Climbing Oakland Center
11:50PM 38.1250 -120.5756 142° Southeast 463 533 29,500 1,800 Climbing Oakland Center
11:51PM 38.0183 -120.4722 143° Southeast 479 551 31,200 1,980 Climbing Oakland Center
11:52PM 37.9125 -120.3681 142° Southeast 482 555 33,500 1,980 Climbing Oakland Center
11:53PM 37.7919 -120.3064 158° South 471 542 35,300 1,740 Climbing Oakland Center
11:54PM 37.6622 -120.2719 168° South 472 543 37,100 1,800 Climbing Oakland Center
11:55PM 37.5369 -120.2389 168° South 462 532 39,000 900 Climbing Oakland Center
11:56PM 37.4131 -120.2050 168° South 456 525 39,000  Level Oakland Center
11:57PM 37.2594 -120.1683 169° South 468 539 39,000  Level Oakland Center
11:58PM 37.1347 -120.1333 167° South 457 526 39,000  Level Oakland Center
11:59PM 37.0239 -120.1033 168° South 447 514 39,000  Level Oakland Center
12:00AM 36.8972 -120.0694 168° South 461 531 39,000  Level Oakland Center
12:02AM 36.7725 -120.0358 168° South 456 525 39,000  Level Oakland Center
12:03AM 36.6481 -120.0019 168° South 453 521 39,000  Level Oakland Center
12:04AM 36.5231 -119.9675 168° South 455 524 39,000  Level Oakland Center
12:05AM 36.3747 -119.9275 168° South 452 520 39,000  Level Oakland Center
12:06AM 36.2536 -119.8958 168° South 444 511 39,000  Level Oakland Center
12:07AM 36.1339 -119.8644 168° South 441 507 39,000  Level Oakland Center
12:08AM 36.0139 -119.8333 168° South 438 504 39,000  Level Oakland Center
12:09AM 35.8969 -119.8067 170° South 429 494 39,000  Level Oakland Center
12:10AM 35.7761 -119.7753 168° South 437 503 39,000  Level Oakland Center
12:11AM 35.6536 -119.7428 168° South 444 511 39,000  Level Oakland Center
12:12AM 35.5339 -119.7122 168° South 440 506 39,000  Level Oakland Center
12:13AM 35.4119 -119.6817 168° South 441 507 39,000  Level Oakland Center
12:13AM 35.3669 -119.6692 167° South 439 505 39,000  Level Los Angeles Center
12:14AM 35.2711 -119.6439 168° South 438 504 39,000 -1,380 Level Los Angeles Center
12:15AM 35.1433 -119.5453 148° Southeast 454 522 36,200 -3,060 Descending Los Angeles Center
12:16AM 35.0375 -119.4533 145° Southeast 462 532 32,800 -2,880 Descending Los Angeles Center
12:17AM 34.9331 -119.3658 146° Southeast 459 528 30,400 -2,640 Descending Los Angeles Center
12:18AM 34.8136 -119.2664 146° Southeast 439 505 27,500 -2,520 Descending Los Angeles Center
12:19AM 34.7192 -119.1867 145° Southeast 419 482 25,300 -2,160 Descending Los Angeles Center
12:20AM 34.6317 -119.1133 145° Southeast 404 465 23,200 -2,100 Descending Los Angeles Center
12:21AM 34.5439 -119.0378 145° Southeast 383 441 21,000 -2,100 Descending Los Angeles Center
12:22AM 34.4597 -118.9692 146° Southeast 364 419 18,900 -2,100 Descending Los Angeles Center
12:23AM 34.3769 -118.8989 145° Southeast 354 407 16,800 -2,100 Descending Los Angeles Center
12:24AM 34.2872 -118.8558 158° South 345 397 14,700 -2,100 Descending Los Angeles Center
12:25AM 34.1972 -118.8228 163° South 339 390 12,600 -2,040 Descending Los Angeles Center
12:26AM 34.0928 -118.7836 163° South 328 377 10,600 -1,200 Descending Los Angeles Center
12:28AM 34.0508 -118.6947 120° Southeast 337 388 10,000 -600 Descending Los Angeles Center
12:29AM 34.0294 -118.5708 102° East 297 342 9,300 -1,260 Descending Los Angeles Center
12:30AM 34.0144 -118.4833 102° East 271 312 7,500 -2,280 Descending Los Angeles Center
12:31AM 34.0186 -118.3972 87° East 259 298 4,700 -2,400 Descending Los Angeles Center
12:32AM 34.0275 -118.3156 82° East 252 290 2,600 -1,140 Descending Los Angeles Center
12:33AM 34.0228 -118.2514 95° East 211 243 2,400 -240 Descending Los Angeles Center
12:34AM 33.9811 -118.2592 189° South 169 194 2,200 -300 Descending Los Angeles Center
12:35AM 33.9617 -118.3031 242° Southwest 155 178 1,800 -600 Descending Los Angeles Center
12:36AM 33.9578 -118.3467 264° West 142 163 1,000 -720 Descending Los Angeles Center
12:37AM 33.9547 -118.3875 265° West 131 151 400 -600 Descending Los Angeles Center
12:39AM 33.9333 -118.4000 228° Southwest  Level FlightAware Approximate